Bell M. Shimada — WTED — position and weather

sailwx.info

Track history (hours):
 
Tides and Currents Weather Stations Pressure Air Temp Water Temp Dewpoint Dewpoint Depression Visibility Wind Speed Wind Dir Waves Ship Positions

Oceanographic research ship Bell M. Shimada (USA)

Last reported at 2017-May-24 19:22 UTC. Time now 2017-May-24 19:40 UTC.
Position N 44°38' W 124°03'.

Length 58 m; draft 6.1 m.

Type: Other ship. MMSI: 369970147.

Date/timePositionNaut miles runAvg speedWind from/ knotsBaromVisibWave heightAir tempDewpointWater temp
2017-May-24 19:22N 44°38' W 124°03'2 6.7
2017-May-24 19:00N 44°36' W 124°06'2 4.0
2017-May-24 18:30N 44°37' W 124°08'3 6.2
2017-May-24 18:00N 44°39' W 124°11'0 1.0
2017-May-24 17:30N 44°39' W 124°10'611.4
2017-May-24 17:00N 44°45' W 124°10'3312.8
2017-May-24 14:24N 45°18' W 124°04'1011.0
2017-May-24 13:30N 45°28' W 124°02'1 1.9
2017-May-24 13:00N 45°29' W 124°02'2 4.0
2017-May-24 12:30N 45°29' W 124°05'1 1.2
2017-May-24 12:00N 45°28' W 124°06'1 2.7
2017-May-24 11:30N 45°29' W 124°08'5 9.8
2017-May-24 11:00N 45°29' W 124°15'4 7.5
2017-May-24 10:30N 45°29' W 124°20'0 0.1
2017-May-24 10:00N 45°29' W 124°20'0 0.8
2017-May-24 09:30N 45°29' W 124°19'2 4.4
2017-May-24 09:00N 45°29' W 124°22'4 7.0
2017-May-24 08:30N 45°28' W 124°27'0 1.0
2017-May-24 08:00N 45°29' W 124°27'1 2.9
2017-May-24 07:30N 45°29' W 124°29'4 8.0
2017-May-24 07:00N 45°28' W 124°35'1 1.0
2017-May-24 06:30N 45°28' W 124°34'0 0.6
2017-May-24 06:00N 45°29' W 124°33'510.1
2017-May-24 05:30N 45°28' W 124°40'911.3
2017-May-24 04:43N 45°26' W 124°53'311.3
2017-May-24 04:30N 45°25' W 124°56'511.2
2017-May-24 04:00N 45°23' W 125°04'611.6
2017-May-24 03:30N 45°21' W 125°11'711.7
2017-May-24 02:52N 45°19' W 125°22'411.7
2017-May-24 02:30N 45°18' W 125°27'611.6
2017-May-24 02:00N 45°17' W 125°35'712.1
2017-May-24 01:27N 45°15' W 125°45'612.2
2017-May-24 00:57N 45°13' W 125°53'12812.1
2017-May-23 14:22N 44°39' W 128°47'0 0.5
2017-May-23 13:26N 44°39' W 128°47'0 0.5
2017-May-23 12:33N 44°39' W 128°46'0 0.3
2017-May-23 12:30N 44°39' W 128°46'26 9.0
2017-May-23 09:39N 44°39' W 128°10'19 8.1
2017-May-23 07:20N 44°39' W 127°44'510.5
2017-May-23 06:52N 44°40' W 127°37'1 2.0
2017-May-23 06:30N 44°39' W 127°36'0 0.8
2017-May-23 06:00N 44°39' W 127°36'6 7.3
2017-May-23 05:12N 44°39' W 127°27'311.9
2017-May-23 04:58N 44°39' W 127°23'611.9
2017-May-23 04:30N 44°39' W 127°16'612.0
2017-May-23 04:00N 44°40' W 127°07'4 8.4
2017-May-23 03:30N 44°40' W 127°01'1 1.3
2017-May-23 03:00N 44°39' W 127°01'1 0.9
2017-May-23 02:24N 44°39' W 126°60'410.4
2017-May-23 01:59N 44°39' W 126°54'611.0
2017-May-23 01:25N 44°39' W 126°45'611.3
2017-May-23 00:55N 44°40' W 126°37'3 2.6
2017-May-22 23:49N 44°39' W 126°33'0 0.9
2017-May-22 23:30N 44°39' W 126°33'1411.2
2017-May-22 22:17N 44°39' W 126°14'311.2
2017-May-22 22:00N 44°39' W 126°09'4 7.5
2017-May-22 21:30N 44°39' W 126°04'1 1.5
2017-May-22 21:00N 44°39' W 126°03'0 0.8
2017-May-22 20:30N 44°39' W 126°03'3 5.5
2017-May-22 20:00N 44°39' W 125°59'611.2
2017-May-22 19:30N 44°39' W 125°51'611.2
2017-May-22 19:00N 44°39' W 125°43'4 7.6
2017-May-22 18:30N 44°39' W 125°38'1 1.0
2017-May-22 18:00N 44°39' W 125°37'0 1.0
2017-May-22 17:30N 44°39' W 125°36'0 0.6
2017-May-22 17:00N 44°39' W 125°36'2 4.2
2017-May-22 16:30N 44°39' W 125°33'611.7
2017-May-22 16:00N 44°39' W 125°25'611.4
2017-May-22 15:30N 44°39' W 125°17'611.5
2017-May-22 15:00N 44°40' W 125°09'2 1.6
2017-May-22 14:00N 44°39' W 125°07'0 0.4
2017-May-22 13:30N 44°39' W 125°07'3 5.0
2017-May-22 13:00N 44°39' W 125°03'611.5
2017-May-22 12:30N 44°40' W 124°55'1 2.0
2017-May-22 12:00N 44°39' W 124°54'0 0.7
2017-May-22 11:30N 44°39' W 124°54'1 1.1
2017-May-22 11:00N 44°39' W 124°53'611.3
2017-May-22 10:30N 44°39' W 124°45'4 7.0
2017-May-22 10:00N 44°39' W 124°40'0 0.9
2017-May-22 09:29N 44°39' W 124°39'0 0.7
2017-May-22 09:00N 44°39' W 124°39'0 0.8
2017-May-22 08:30N 44°39' W 124°38'2 4.1
2017-May-22 08:00N 44°39' W 124°35'2 3.2
2017-May-22 07:29N 44°39' W 124°33'1 1.1
2017-May-22 07:00N 44°39' W 124°32'2 3.2
2017-May-22 06:30N 44°39' W 124°30'3 6.5
2017-May-22 06:00N 44°39' W 124°25'2 4.7
2017-May-22 05:30N 44°39' W 124°22'3 5.4
2017-May-22 05:00N 44°39' W 124°18'4 7.2
2017-May-22 04:25N 44°39' W 124°12'1 2.0
2017-May-22 04:00N 44°39' W 124°11'1 1.1
2017-May-22 03:30N 44°39' W 124°10'2 4.7
2017-May-22 03:00N 44°39' W 124°07'0 0.8
2017-May-22 02:30N 44°39' W 124°07'2 3.5
2017-May-22 02:00N 44°41' W 124°07'1 2.5
2017-May-22 01:30N 44°42' W 124°06'1 1.5
2017-May-22 01:00N 44°41' W 124°06'0 0.0
2017-May-22 00:30N 44°41' W 124°06'1 1.6
2017-May-22 00:00N 44°42' W 124°07'1 1.7
2017-May-21 23:30N 44°41' W 124°07'1 1.1
2017-May-21 23:01N 44°42' W 124°07'2 4.9
2017-May-21 22:30N 44°39' W 124°08'1 1.3
2017-May-21 22:01N 44°39' W 124°08'0 0.6
2017-May-21 21:30N 44°39' W 124°08'2 3.7
2017-May-21 21:00N 44°39' W 124°10'0 0.7
2017-May-21 20:30N 44°39' W 124°10'0 0.4
2017-May-21 20:00N 44°39' W 124°11'0 0.4
2017-May-21 19:26N 44°39' W 124°11'0 0.6
2017-May-21 19:01N 44°39' W 124°11'3 5.4
2017-May-21 18:30N 44°39' W 124°15'2 3.2
2017-May-21 17:49N 44°39' W 124°18'0 1.4
2017-May-21 17:30N 44°39' W 124°18'0 0.4
2017-May-21 16:59N 44°39' W 124°18'2 4.0
2017-May-21 16:30N 44°40' W 124°20'4 8.7
2017-May-21 16:00N 44°43' W 124°25'1 1.7
2017-May-21 15:30N 44°42' W 124°24'1 1.2
2017-May-21 14:59N 44°42' W 124°25'0 0.5
2017-May-21 14:00N 44°42' W 124°24'3 5.7
2017-May-21 13:30N 44°40' W 124°27'4 7.3
2017-May-21 13:00N 44°37' W 124°30'5 9.1
2017-May-21 12:30N 44°33' W 124°34'4 8.9
2017-May-21 12:00N 44°30' W 124°38'5 8.9
2017-May-21 11:30N 44°26' W 124°42'4 9.0
2017-May-21 11:00N 44°23' W 124°46'5 9.1
2017-May-21 10:30N 44°19' W 124°50'5 9.0
2017-May-21 09:57N 44°16' W 124°55'5 9.2
2017-May-21 09:27N 44°12' W 124°59'12 3.7
2017-May-21 06:13N 44°00' W 125°03'3 1.9
2017-May-21 04:45N 44°00' W 124°60'4 8.9
2017-May-21 04:20N 43°60' W 124°54'4 6.9
2017-May-21 03:45N 43°60' W 124°49'47 2.5
2017-May-20 09:16N 43°13' W 124°43'44 2.5
2017-May-19 15:31N 42°30' W 124°54'  
2017-May-16 14:08N 38°34' W 123°39'710.5
2017-May-16 13:30N 38°28' W 123°35'5 9.9
2017-May-16 13:00N 38°23' W 123°32'5 9.5
2017-May-16 12:30N 38°19' W 123°29'4 8.9
2017-May-16 12:00N 38°15' W 123°27'4 7.2
2017-May-16 11:30N 38°12' W 123°25'1 1.4
2017-May-16 11:00N 38°12' W 123°24'0 0.7
2017-May-16 10:30N 38°12' W 123°24'3 6.6
2017-May-16 10:00N 38°13' W 123°20'2 4.8
2017-May-16 09:30N 38°14' W 123°17'0 0.9
2017-May-16 09:00N 38°14' W 123°17'2 4.9
2017-May-16 08:30N 38°15' W 123°14'2 3.9
2017-May-16 08:00N 38°16' W 123°12'0 0.9
2017-May-16 07:30N 38°16' W 123°11'2 3.9
2017-May-16 07:01N 38°17' W 123°09'1 1.2
2017-May-16 06:30N 38°17' W 123°08'1 1.0
2017-May-16 06:00N 38°18' W 123°08'1 2.5
2017-May-16 05:30N 38°18' W 123°06'0 0.7
2017-May-16 05:00N 38°18' W 123°06'0 0.8
2017-May-16 04:30N 38°18' W 123°06'0 0.6
2017-May-16 04:00N 38°19' W 123°05'2 3.2
2017-May-16 03:30N 38°17' W 123°06'2 4.8
2017-May-16 03:00N 38°15' W 123°07'2 4.4
2017-May-16 02:30N 38°13' W 123°08'2 4.2
2017-May-16 02:00N 38°10' W 123°08'2 4.2
2017-May-16 01:31N 38°08' W 123°09'2 4.2
2017-May-16 01:00N 38°06' W 123°09'2 3.6
2017-May-16 00:30N 38°05' W 123°09'2 3.6
2017-May-16 00:00N 38°03' W 123°09'2 3.7
2017-May-15 23:30N 38°01' W 123°09'2 4.2
2017-May-15 23:00N 37°59' W 123°09'2 4.6
2017-May-15 22:30N 37°58' W 123°06'2 4.5
2017-May-15 22:00N 37°56' W 123°04'3 5.3
2017-May-15 21:30N 37°55' W 123°01'3 6.8
2017-May-15 21:00N 37°54' W 122°57'4 7.2
2017-May-15 20:30N 37°52' W 122°53'4 7.6
2017-May-15 19:59N 37°50' W 122°49'5 9.3
2017-May-15 19:30N 37°48' W 122°44'4 9.1
2017-May-15 19:00N 37°46' W 122°39'5 9.3
2017-May-15 18:30N 37°48' W 122°33'5 9.9
2017-May-15 18:00N 37°50' W 122°28'4 7.6
2017-May-15 17:30N 37°48' W 122°23'1 1.6
2017-May-15 16:58N 37°47' W 122°23'0 0.0
2017-May-15 16:28N 37°47' W 122°23'0 0.0
2017-May-15 15:55N 37°47' W 122°23'0 0.0
2017-May-15 15:28N 37°47' W 122°23'0 0.0
2017-May-15 14:58N 37°47' W 122°23'0 0.0
2017-May-15 13:58N 37°47' W 122°23'0 0.0
2017-May-15 13:28N 37°47' W 122°23'0 0.0
2017-May-15 12:58N 37°47' W 122°23'0 0.0
2017-May-15 12:28N 37°47' W 122°23'0 0.0
2017-May-15 11:58N 37°47' W 122°23'0 0.0
2017-May-15 11:28N 37°47' W 122°23'0 0.0
2017-May-15 10:58N 37°47' W 122°23'0 0.0
2017-May-15 10:28N 37°47' W 122°23'0 0.0
2017-May-15 09:58N 37°47' W 122°23'0 0.0
2017-May-15 09:28N 37°47' W 122°23'0 0.0
2017-May-15 08:58N 37°47' W 122°23'0 0.0
2017-May-15 08:28N 37°47' W 122°23'0 0.0
2017-May-15 07:58N 37°47' W 122°23'0 0.0
2017-May-15 07:28N 37°47' W 122°23'0 0.0
2017-May-15 06:58N 37°47' W 122°23'0 0.0
2017-May-15 06:28N 37°47' W 122°23'0 0.0
2017-May-15 05:58N 37°47' W 122°23'0 0.0
2017-May-15 05:28N 37°47' W 122°23'0 0.0
2017-May-15 04:58N 37°47' W 122°23'0 0.0
2017-May-15 04:28N 37°47' W 122°23'0 0.0
2017-May-15 03:58N 37°47' W 122°23'0 0.0
2017-May-15 03:28N 37°47' W 122°23'0 0.0
2017-May-15 02:58N 37°47' W 122°23'0 0.0
2017-May-15 02:28N 37°47' W 122°23'0 0.0
2017-May-15 01:58N 37°47' W 122°23'0 0.0
2017-May-15 01:28N 37°47' W 122°23'0 0.0
2017-May-15 00:58N 37°47' W 122°23'0 0.0
2017-May-15 00:28N 37°47' W 122°23'0 0.0
2017-May-14 23:58N 37°47' W 122°23'0 0.0
2017-May-14 23:28N 37°47' W 122°23'0 0.0
2017-May-14 22:58N 37°47' W 122°23'0 0.0
2017-May-14 22:28N 37°47' W 122°23'0 0.0
2017-May-14 21:58N 37°47' W 122°23'0 0.0
2017-May-14 21:28N 37°47' W 122°23'0 0.0
2017-May-14 20:58N 37°47' W 122°23'0 0.0
2017-May-14 20:28N 37°47' W 122°23'0 0.0
2017-May-14 19:58N 37°47' W 122°23'0 0.0
2017-May-14 19:28N 37°47' W 122°23'  
Track history (hours):
 
Tides and Currents Weather Stations Pressure Air Temp Water Temp Dewpoint Dewpoint Depression Visibility Wind Speed Wind Dir Waves Ship Positions

Oceanographic research ship Bell M. Shimada (USA)

Last reported at 2017-May-24 19:22 UTC. Time now 2017-May-24 19:40 UTC.
Position N 44°38' W 124°03'.

Length 58 m; draft 6.1 m.

Type: Other ship. MMSI: 369970147.

Date/timePositionNaut miles runAvg speedWind from/ knotsBaromVisibWave heightAir tempDewpointWater temp
2017-May-24 19:22N 44°38' W 124°03'2 6.7
2017-May-24 19:00N 44°36' W 124°06'2 4.0
2017-May-24 18:30N 44°37' W 124°08'3 6.2
2017-May-24 18:00N 44°39' W 124°11'0 1.0
2017-May-24 17:30N 44°39' W 124°10'611.4
2017-May-24 17:00N 44°45' W 124°10'3312.8
2017-May-24 14:24N 45°18' W 124°04'1011.0
2017-May-24 13:30N 45°28' W 124°02'1 1.9
2017-May-24 13:00N 45°29' W 124°02'2 4.0
2017-May-24 12:30N 45°29' W 124°05'1 1.2
2017-May-24 12:00N 45°28' W 124°06'1 2.7
2017-May-24 11:30N 45°29' W 124°08'5 9.8
2017-May-24 11:00N 45°29' W 124°15'4 7.5
2017-May-24 10:30N 45°29' W 124°20'0 0.1
2017-May-24 10:00N 45°29' W 124°20'0 0.8
2017-May-24 09:30N 45°29' W 124°19'2 4.4
2017-May-24 09:00N 45°29' W 124°22'4 7.0
2017-May-24 08:30N 45°28' W 124°27'0 1.0
2017-May-24 08:00N 45°29' W 124°27'1 2.9
2017-May-24 07:30N 45°29' W 124°29'4 8.0
2017-May-24 07:00N 45°28' W 124°35'1 1.0
2017-May-24 06:30N 45°28' W 124°34'0 0.6
2017-May-24 06:00N 45°29' W 124°33'510.1
2017-May-24 05:30N 45°28' W 124°40'911.3
2017-May-24 04:43N 45°26' W 124°53'311.3
2017-May-24 04:30N 45°25' W 124°56'511.2
2017-May-24 04:00N 45°23' W 125°04'611.6
2017-May-24 03:30N 45°21' W 125°11'711.7
2017-May-24 02:52N 45°19' W 125°22'411.7
2017-May-24 02:30N 45°18' W 125°27'611.6
2017-May-24 02:00N 45°17' W 125°35'712.1
2017-May-24 01:27N 45°15' W 125°45'612.2
2017-May-24 00:57N 45°13' W 125°53'12812.1
2017-May-23 14:22N 44°39' W 128°47'0 0.5
2017-May-23 13:26N 44°39' W 128°47'0 0.5
2017-May-23 12:33N 44°39' W 128°46'0 0.3
2017-May-23 12:30N 44°39' W 128°46'26 9.0
2017-May-23 09:39N 44°39' W 128°10'19 8.1
2017-May-23 07:20N 44°39' W 127°44'510.5
2017-May-23 06:52N 44°40' W 127°37'1 2.0
2017-May-23 06:30N 44°39' W 127°36'0 0.8
2017-May-23 06:00N 44°39' W 127°36'6 7.3
2017-May-23 05:12N 44°39' W 127°27'311.9
2017-May-23 04:58N 44°39' W 127°23'611.9
2017-May-23 04:30N 44°39' W 127°16'612.0
2017-May-23 04:00N 44°40' W 127°07'4 8.4
2017-May-23 03:30N 44°40' W 127°01'1 1.3
2017-May-23 03:00N 44°39' W 127°01'1 0.9
2017-May-23 02:24N 44°39' W 126°60'410.4
2017-May-23 01:59N 44°39' W 126°54'611.0
2017-May-23 01:25N 44°39' W 126°45'611.3
2017-May-23 00:55N 44°40' W 126°37'3 2.6
2017-May-22 23:49N 44°39' W 126°33'0 0.9
2017-May-22 23:30N 44°39' W 126°33'1411.2
2017-May-22 22:17N 44°39' W 126°14'311.2
2017-May-22 22:00N 44°39' W 126°09'4 7.5
2017-May-22 21:30N 44°39' W 126°04'1 1.5
2017-May-22 21:00N 44°39' W 126°03'0 0.8
2017-May-22 20:30N 44°39' W 126°03'3 5.5
2017-May-22 20:00N 44°39' W 125°59'611.2
2017-May-22 19:30N 44°39' W 125°51'611.2
2017-May-22 19:00N 44°39' W 125°43'4 7.6
2017-May-22 18:30N 44°39' W 125°38'1 1.0
2017-May-22 18:00N 44°39' W 125°37'0 1.0
2017-May-22 17:30N 44°39' W 125°36'0 0.6
2017-May-22 17:00N 44°39' W 125°36'2 4.2
2017-May-22 16:30N 44°39' W 125°33'611.7
2017-May-22 16:00N 44°39' W 125°25'611.4
2017-May-22 15:30N 44°39' W 125°17'611.5
2017-May-22 15:00N 44°40' W 125°09'2 1.6
2017-May-22 14:00N 44°39' W 125°07'0 0.4
2017-May-22 13:30N 44°39' W 125°07'3 5.0
2017-May-22 13:00N 44°39' W 125°03'611.5
2017-May-22 12:30N 44°40' W 124°55'1 2.0
2017-May-22 12:00N 44°39' W 124°54'0 0.7
2017-May-22 11:30N 44°39' W 124°54'1 1.1
2017-May-22 11:00N 44°39' W 124°53'611.3
2017-May-22 10:30N 44°39' W 124°45'4 7.0
2017-May-22 10:00N 44°39' W 124°40'0 0.9
2017-May-22 09:29N 44°39' W 124°39'0 0.7
2017-May-22 09:00N 44°39' W 124°39'0 0.8
2017-May-22 08:30N 44°39' W 124°38'2 4.1
2017-May-22 08:00N 44°39' W 124°35'2 3.2
2017-May-22 07:29N 44°39' W 124°33'1 1.1
2017-May-22 07:00N 44°39' W 124°32'2 3.2
2017-May-22 06:30N 44°39' W 124°30'3 6.5
2017-May-22 06:00N 44°39' W 124°25'2 4.7
2017-May-22 05:30N 44°39' W 124°22'3 5.4
2017-May-22 05:00N 44°39' W 124°18'4 7.2
2017-May-22 04:25N 44°39' W 124°12'1 2.0
2017-May-22 04:00N 44°39' W 124°11'1 1.1
2017-May-22 03:30N 44°39' W 124°10'2 4.7
2017-May-22 03:00N 44°39' W 124°07'0 0.8
2017-May-22 02:30N 44°39' W 124°07'2 3.5
2017-May-22 02:00N 44°41' W 124°07'1 2.5
2017-May-22 01:30N 44°42' W 124°06'1 1.5
2017-May-22 01:00N 44°41' W 124°06'0 0.0
2017-May-22 00:30N 44°41' W 124°06'1 1.6
2017-May-22 00:00N 44°42' W 124°07'1 1.7
2017-May-21 23:30N 44°41' W 124°07'1 1.1
2017-May-21 23:01N 44°42' W 124°07'2 4.9
2017-May-21 22:30N 44°39' W 124°08'1 1.3
2017-May-21 22:01N 44°39' W 124°08'0 0.6
2017-May-21 21:30N 44°39' W 124°08'2 3.7
2017-May-21 21:00N 44°39' W 124°10'0 0.7
2017-May-21 20:30N 44°39' W 124°10'0 0.4
2017-May-21 20:00N 44°39' W 124°11'0 0.4
2017-May-21 19:26N 44°39' W 124°11'0 0.6
2017-May-21 19:01N 44°39' W 124°11'3 5.4
2017-May-21 18:30N 44°39' W 124°15'2 3.2
2017-May-21 17:49N 44°39' W 124°18'0 1.4
2017-May-21 17:30N 44°39' W 124°18'0 0.4
2017-May-21 16:59N 44°39' W 124°18'2 4.0
2017-May-21 16:30N 44°40' W 124°20'4 8.7
2017-May-21 16:00N 44°43' W 124°25'1 1.7
2017-May-21 15:30N 44°42' W 124°24'1 1.2
2017-May-21 14:59N 44°42' W 124°25'0 0.5
2017-May-21 14:00N 44°42' W 124°24'3 5.7
2017-May-21 13:30N 44°40' W 124°27'4 7.3
2017-May-21 13:00N 44°37' W 124°30'5 9.1
2017-May-21 12:30N 44°33' W 124°34'4 8.9
2017-May-21 12:00N 44°30' W 124°38'5 8.9
2017-May-21 11:30N 44°26' W 124°42'4 9.0
2017-May-21 11:00N 44°23' W 124°46'5 9.1
2017-May-21 10:30N 44°19' W 124°50'5 9.0
2017-May-21 09:57N 44°16' W 124°55'5 9.2
2017-May-21 09:27N 44°12' W 124°59'12 3.7
2017-May-21 06:13N 44°00' W 125°03'3 1.9
2017-May-21 04:45N 44°00' W 124°60'4 8.9
2017-May-21 04:20N 43°60' W 124°54'4 6.9
2017-May-21 03:45N 43°60' W 124°49'47 2.5
2017-May-20 09:16N 43°13' W 124°43'44 2.5
2017-May-19 15:31N 42°30' W 124°54'  
2017-May-16 14:08N 38°34' W 123°39'710.5
2017-May-16 13:30N 38°28' W 123°35'5 9.9
2017-May-16 13:00N 38°23' W 123°32'5 9.5
2017-May-16 12:30N 38°19' W 123°29'4 8.9
2017-May-16 12:00N 38°15' W 123°27'4 7.2
2017-May-16 11:30N 38°12' W 123°25'1 1.4
2017-May-16 11:00N 38°12' W 123°24'0 0.7
2017-May-16 10:30N 38°12' W 123°24'3 6.6
2017-May-16 10:00N 38°13' W 123°20'2 4.8
2017-May-16 09:30N 38°14' W 123°17'0 0.9
2017-May-16 09:00N 38°14' W 123°17'2 4.9
2017-May-16 08:30N 38°15' W 123°14'2 3.9
2017-May-16 08:00N 38°16' W 123°12'0 0.9
2017-May-16 07:30N 38°16' W 123°11'2 3.9
2017-May-16 07:01N 38°17' W 123°09'1 1.2
2017-May-16 06:30N 38°17' W 123°08'1 1.0
2017-May-16 06:00N 38°18' W 123°08'1 2.5
2017-May-16 05:30N 38°18' W 123°06'0 0.7
2017-May-16 05:00N 38°18' W 123°06'0 0.8
2017-May-16 04:30N 38°18' W 123°06'0 0.6
2017-May-16 04:00N 38°19' W 123°05'2 3.2
2017-May-16 03:30N 38°17' W 123°06'2 4.8
2017-May-16 03:00N 38°15' W 123°07'2 4.4
2017-May-16 02:30N 38°13' W 123°08'2 4.2
2017-May-16 02:00N 38°10' W 123°08'2 4.2
2017-May-16 01:31N 38°08' W 123°09'2 4.2
2017-May-16 01:00N 38°06' W 123°09'2 3.6
2017-May-16 00:30N 38°05' W 123°09'2 3.6
2017-May-16 00:00N 38°03' W 123°09'2 3.7
2017-May-15 23:30N 38°01' W 123°09'2 4.2
2017-May-15 23:00N 37°59' W 123°09'2 4.6
2017-May-15 22:30N 37°58' W 123°06'2 4.5
2017-May-15 22:00N 37°56' W 123°04'3 5.3
2017-May-15 21:30N 37°55' W 123°01'3 6.8
2017-May-15 21:00N 37°54' W 122°57'4 7.2
2017-May-15 20:30N 37°52' W 122°53'4 7.6
2017-May-15 19:59N 37°50' W 122°49'5 9.3
2017-May-15 19:30N 37°48' W 122°44'4 9.1
2017-May-15 19:00N 37°46' W 122°39'5 9.3
2017-May-15 18:30N 37°48' W 122°33'5 9.9
2017-May-15 18:00N 37°50' W 122°28'4 7.6
2017-May-15 17:30N 37°48' W 122°23'1 1.6
2017-May-15 16:58N 37°47' W 122°23'0 0.0
2017-May-15 16:28N 37°47' W 122°23'0 0.0
2017-May-15 15:55N 37°47' W 122°23'0 0.0
2017-May-15 15:28N 37°47' W 122°23'0 0.0
2017-May-15 14:58N 37°47' W 122°23'0 0.0
2017-May-15 13:58N 37°47' W 122°23'0 0.0
2017-May-15 13:28N 37°47' W 122°23'0 0.0
2017-May-15 12:58N 37°47' W 122°23'0 0.0
2017-May-15 12:28N 37°47' W 122°23'0 0.0
2017-May-15 11:58N 37°47' W 122°23'0 0.0
2017-May-15 11:28N 37°47' W 122°23'0 0.0
2017-May-15 10:58N 37°47' W 122°23'0 0.0
2017-May-15 10:28N 37°47' W 122°23'0 0.0
2017-May-15 09:58N 37°47' W 122°23'0 0.0
2017-May-15 09:28N 37°47' W 122°23'0 0.0
2017-May-15 08:58N 37°47' W 122°23'0 0.0
2017-May-15 08:28N 37°47' W 122°23'0 0.0
2017-May-15 07:58N 37°47' W 122°23'0 0.0
2017-May-15 07:28N 37°47' W 122°23'0 0.0
2017-May-15 06:58N 37°47' W 122°23'0 0.0
2017-May-15 06:28N 37°47' W 122°23'0 0.0
2017-May-15 05:58N 37°47' W 122°23'0 0.0
2017-May-15 05:28N 37°47' W 122°23'0 0.0
2017-May-15 04:58N 37°47' W 122°23'0 0.0
2017-May-15 04:28N 37°47' W 122°23'0 0.0
2017-May-15 03:58N 37°47' W 122°23'0 0.0
2017-May-15 03:28N 37°47' W 122°23'0 0.0
2017-May-15 02:58N 37°47' W 122°23'0 0.0
2017-May-15 02:28N 37°47' W 122°23'0 0.0
2017-May-15 01:58N 37°47' W 122°23'0 0.0
2017-May-15 01:28N 37°47' W 122°23'0 0.0
2017-May-15 00:58N 37°47' W 122°23'0 0.0
2017-May-15 00:28N 37°47' W 122°23'0 0.0
2017-May-14 23:58N 37°47' W 122°23'0 0.0
2017-May-14 23:28N 37°47' W 122°23'0 0.0
2017-May-14 22:58N 37°47' W 122°23'0 0.0
2017-May-14 22:28N 37°47' W 122°23'0 0.0
2017-May-14 21:58N 37°47' W 122°23'0 0.0
2017-May-14 21:28N 37°47' W 122°23'0 0.0
2017-May-14 20:58N 37°47' W 122°23'0 0.0
2017-May-14 20:28N 37°47' W 122°23'0 0.0
2017-May-14 19:58N 37°47' W 122°23'0 0.0
2017-May-14 19:28N 37°47' W 122°23'  

Dump ship's entire track history